sensor_id;sensor_type;location;lat;lon;timestamp;temperature;humidity
580;DHT22;276;48.392;9.950;2023-09-08T00:00:16;19.60;99.90
580;DHT22;276;48.392;9.950;2023-09-08T00:02:41;19.50;99.90
580;DHT22;276;48.392;9.950;2023-09-08T00:05:07;19.40;99.90
580;DHT22;276;48.392;9.950;2023-09-08T00:07:33;19.40;99.90
580;DHT22;276;48.392;9.950;2023-09-08T00:09:58;19.40;99.90
580;DHT22;276;48.392;9.950;2023-09-08T00:12:24;19.40;99.90
580;DHT22;276;48.392;9.950;2023-09-08T00:14:52;19.30;99.90
580;DHT22;276;48.392;9.950;2023-09-08T00:17:17;19.30;99.90
580;DHT22;276;48.392;9.950;2023-09-08T00:19:43;19.40;99.90
580;DHT22;276;48.392;9.950;2023-09-08T00:22:08;19.30;99.90
580;DHT22;276;48.392;9.950;2023-09-08T00:24:36;19.30;99.90
580;DHT22;276;48.392;9.950;2023-09-08T00:27:02;19.30;99.90
580;DHT22;276;48.392;9.950;2023-09-08T00:29:32;19.30;99.90
580;DHT22;276;48.392;9.950;2023-09-08T00:31:58;19.30;99.90
580;DHT22;276;48.392;9.950;2023-09-08T00:34:23;19.20;99.90
580;DHT22;276;48.392;9.950;2023-09-08T00:36:49;19.20;99.90
580;DHT22;276;48.392;9.950;2023-09-08T00:39:17;19.20;99.90
580;DHT22;276;48.392;9.950;2023-09-08T00:41:42;19.20;99.90
580;DHT22;276;48.392;9.950;2023-09-08T00:44:08;19.20;99.90
580;DHT22;276;48.392;9.950;2023-09-08T00:46:35;19.20;99.90
580;DHT22;276;48.392;9.950;2023-09-08T00:49:00;19.20;99.90
580;DHT22;276;48.392;9.950;2023-09-08T00:51:26;19.20;99.90
580;DHT22;276;48.392;9.950;2023-09-08T00:53:52;19.20;99.90
580;DHT22;276;48.392;9.950;2023-09-08T00:56:18;19.20;99.90
580;DHT22;276;48.392;9.950;2023-09-08T00:58:44;19.20;99.90
580;DHT22;276;48.392;9.950;2023-09-08T01:01:09;19.20;99.90
580;DHT22;276;48.392;9.950;2023-09-08T01:03:35;19.20;99.90
580;DHT22;276;48.392;9.950;2023-09-08T01:06:01;19.10;99.90
580;DHT22;276;48.392;9.950;2023-09-08T01:08:27;19.10;99.90
580;DHT22;276;48.392;9.950;2023-09-08T01:10:55;19.10;99.90
580;DHT22;276;48.392;9.950;2023-09-08T01:13:21;19.00;99.90
580;DHT22;276;48.392;9.950;2023-09-08T01:15:48;19.00;99.90
580;DHT22;276;48.392;9.950;2023-09-08T01:18:16;19.00;99.90
580;DHT22;276;48.392;9.950;2023-09-08T01:26:20;18.90;99.90
580;DHT22;276;48.392;9.950;2023-09-08T01:28:50;18.90;99.90
580;DHT22;276;48.392;9.950;2023-09-08T01:31:17;18.90;99.90
580;DHT22;276;48.392;9.950;2023-09-08T01:33:43;18.90;99.90
580;DHT22;276;48.392;9.950;2023-09-08T01:36:09;18.90;99.90
580;DHT22;276;48.392;9.950;2023-09-08T01:38:38;18.90;99.90
580;DHT22;276;48.392;9.950;2023-09-08T01:41:03;18.90;99.90
580;DHT22;276;48.392;9.950;2023-09-08T01:43:31;18.90;99.90
580;DHT22;276;48.392;9.950;2023-09-08T01:45:57;18.90;99.90
580;DHT22;276;48.392;9.950;2023-09-08T01:48:22;18.90;99.90
580;DHT22;276;48.392;9.950;2023-09-08T01:50:50;18.90;99.90
580;DHT22;276;48.392;9.950;2023-09-08T01:53:16;18.80;99.90
580;DHT22;276;48.392;9.950;2023-09-08T01:55:46;18.80;99.90
580;DHT22;276;48.392;9.950;2023-09-08T01:58:12;18.80;99.90
580;DHT22;276;48.392;9.950;2023-09-08T02:00:42;18.80;99.90
580;DHT22;276;48.392;9.950;2023-09-08T02:03:08;18.80;99.90
580;DHT22;276;48.392;9.950;2023-09-08T02:05:33;18.80;99.90
580;DHT22;276;48.392;9.950;2023-09-08T02:08:04;18.70;99.90
580;DHT22;276;48.392;9.950;2023-09-08T02:10:30;18.70;99.90
580;DHT22;276;48.392;9.950;2023-09-08T02:12:55;18.70;99.90
580;DHT22;276;48.392;9.950;2023-09-08T02:15:23;18.70;99.90
580;DHT22;276;48.392;9.950;2023-09-08T02:17:52;18.70;99.90
580;DHT22;276;48.392;9.950;2023-09-08T02:20:18;18.60;99.90
580;DHT22;276;48.392;9.950;2023-09-08T02:22:46;18.60;99.90
580;DHT22;276;48.392;9.950;2023-09-08T02:25:17;18.60;99.90
580;DHT22;276;48.392;9.950;2023-09-08T02:27:43;18.50;99.90
580;DHT22;276;48.392;9.950;2023-09-08T02:30:09;18.50;99.90
580;DHT22;276;48.392;9.950;2023-09-08T02:32:34;18.50;99.90
580;DHT22;276;48.392;9.950;2023-09-08T02:35:00;18.50;99.90
580;DHT22;276;48.392;9.950;2023-09-08T02:37:28;18.50;99.90
580;DHT22;276;48.392;9.950;2023-09-08T02:39:54;18.50;99.90
580;DHT22;276;48.392;9.950;2023-09-08T02:42:19;18.50;99.90
580;DHT22;276;48.392;9.950;2023-09-08T02:44:45;18.50;99.90
580;DHT22;276;48.392;9.950;2023-09-08T02:47:15;18.50;99.90
580;DHT22;276;48.392;9.950;2023-09-08T02:49:40;18.50;99.90
580;DHT22;276;48.392;9.950;2023-09-08T02:52:08;18.40;99.90
580;DHT22;276;48.392;9.950;2023-09-08T02:54:36;18.40;99.90
580;DHT22;276;48.392;9.950;2023-09-08T02:57:02;18.40;99.90
580;DHT22;276;48.392;9.950;2023-09-08T02:59:30;18.40;99.90
580;DHT22;276;48.392;9.950;2023-09-08T03:01:56;18.40;99.90
580;DHT22;276;48.392;9.950;2023-09-08T03:04:21;18.40;99.90
580;DHT22;276;48.392;9.950;2023-09-08T03:06:52;18.40;99.90
580;DHT22;276;48.392;9.950;2023-09-08T03:09:17;18.40;99.90
580;DHT22;276;48.392;9.950;2023-09-08T03:11:43;18.30;99.90
580;DHT22;276;48.392;9.950;2023-09-08T03:14:11;18.30;99.90
580;DHT22;276;48.392;9.950;2023-09-08T03:16:39;18.30;99.90
580;DHT22;276;48.392;9.950;2023-09-08T03:19:07;18.30;99.90
580;DHT22;276;48.392;9.950;2023-09-08T03:21:32;18.30;99.90
580;DHT22;276;48.392;9.950;2023-09-08T03:24:00;18.30;99.90
580;DHT22;276;48.392;9.950;2023-09-08T03:26:26;18.30;99.90
580;DHT22;276;48.392;9.950;2023-09-08T03:28:54;18.30;99.90
580;DHT22;276;48.392;9.950;2023-09-08T03:31:19;18.30;99.90
580;DHT22;276;48.392;9.950;2023-09-08T03:33:45;18.30;99.90
580;DHT22;276;48.392;9.950;2023-09-08T03:36:10;18.30;99.90
580;DHT22;276;48.392;9.950;2023-09-08T03:38:36;18.30;99.90
580;DHT22;276;48.392;9.950;2023-09-08T03:41:05;18.30;99.90
580;DHT22;276;48.392;9.950;2023-09-08T03:43:31;18.20;99.90
580;DHT22;276;48.392;9.950;2023-09-08T03:45:57;18.20;99.90
580;DHT22;276;48.392;9.950;2023-09-08T03:48:24;18.20;99.90
580;DHT22;276;48.392;9.950;2023-09-08T03:50:52;18.20;99.90
580;DHT22;276;48.392;9.950;2023-09-08T03:53:20;18.20;99.90
580;DHT22;276;48.392;9.950;2023-09-08T03:55:48;18.20;99.90
580;DHT22;276;48.392;9.950;2023-09-08T03:58:13;18.20;99.90
580;DHT22;276;48.392;9.950;2023-09-08T04:00:42;18.20;99.90
580;DHT22;276;48.392;9.950;2023-09-08T04:03:08;18.30;99.90
580;DHT22;276;48.392;9.950;2023-09-08T04:05:34;18.30;99.90
580;DHT22;276;48.392;9.950;2023-09-08T04:08:01;18.30;99.90
580;DHT22;276;48.392;9.950;2023-09-08T04:10:27;18.20;99.90
580;DHT22;276;48.392;9.950;2023-09-08T04:12:52;18.20;99.90
580;DHT22;276;48.392;9.950;2023-09-08T04:15:18;18.20;99.90
580;DHT22;276;48.392;9.950;2023-09-08T04:17:45;18.20;99.90
580;DHT22;276;48.392;9.950;2023-09-08T04:20:13;18.10;99.90
580;DHT22;276;48.392;9.950;2023-09-08T04:22:40;18.10;99.90
580;DHT22;276;48.392;9.950;2023-09-08T04:25:09;18.00;99.90
580;DHT22;276;48.392;9.950;2023-09-08T04:27:35;18.00;99.90
580;DHT22;276;48.392;9.950;2023-09-08T04:30:02;18.00;99.90
580;DHT22;276;48.392;9.950;2023-09-08T04:32:33;18.00;99.90
580;DHT22;276;48.392;9.950;2023-09-08T04:35:01;18.00;99.90
580;DHT22;276;48.392;9.950;2023-09-08T04:37:26;18.00;99.90
580;DHT22;276;48.392;9.950;2023-09-08T04:39:55;18.00;99.90
580;DHT22;276;48.392;9.950;2023-09-08T04:42:21;18.00;99.90
580;DHT22;276;48.392;9.950;2023-09-08T04:44:48;18.00;99.90
580;DHT22;276;48.392;9.950;2023-09-08T04:47:17;18.00;99.90
580;DHT22;276;48.392;9.950;2023-09-08T04:49:43;18.00;99.90
580;DHT22;276;48.392;9.950;2023-09-08T04:52:08;18.00;99.90
580;DHT22;276;48.392;9.950;2023-09-08T04:54:36;17.90;99.90
580;DHT22;276;48.392;9.950;2023-09-08T04:57:01;17.90;99.90
580;DHT22;276;48.392;9.950;2023-09-08T04:59:28;17.90;99.90
580;DHT22;276;48.392;9.950;2023-09-08T05:01:53;17.90;99.90
580;DHT22;276;48.392;9.950;2023-09-08T05:04:19;17.90;99.90
580;DHT22;276;48.392;9.950;2023-09-08T05:06:49;17.90;99.90
580;DHT22;276;48.392;9.950;2023-09-08T05:09:17;17.90;99.90
580;DHT22;276;48.392;9.950;2023-09-08T05:11:43;17.90;99.90
580;DHT22;276;48.392;9.950;2023-09-08T05:14:11;17.90;99.90
580;DHT22;276;48.392;9.950;2023-09-08T05:16:43;17.90;99.90
580;DHT22;276;48.392;9.950;2023-09-08T05:19:16;17.90;99.90
580;DHT22;276;48.392;9.950;2023-09-08T05:21:44;17.90;99.90
580;DHT22;276;48.392;9.950;2023-09-08T05:24:12;17.90;99.90
580;DHT22;276;48.392;9.950;2023-09-08T05:26:43;17.90;99.90
580;DHT22;276;48.392;9.950;2023-09-08T05:29:09;18.00;99.90
580;DHT22;276;48.392;9.950;2023-09-08T05:31:37;18.00;99.90
580;DHT22;276;48.392;9.950;2023-09-08T05:34:05;18.00;99.90
580;DHT22;276;48.392;9.950;2023-09-08T05:36:33;18.00;99.90
580;DHT22;276;48.392;9.950;2023-09-08T05:39:04;18.00;99.90
580;DHT22;276;48.392;9.950;2023-09-08T05:41:30;18.00;99.90
580;DHT22;276;48.392;9.950;2023-09-08T05:44:03;18.10;99.90
580;DHT22;276;48.392;9.950;2023-09-08T05:46:31;18.10;99.90
580;DHT22;276;48.392;9.950;2023-09-08T05:49:02;18.10;99.90
580;DHT22;276;48.392;9.950;2023-09-08T05:51:27;18.20;99.90
580;DHT22;276;48.392;9.950;2023-09-08T05:53:53;18.20;99.90
580;DHT22;276;48.392;9.950;2023-09-08T05:56:19;18.20;99.90
580;DHT22;276;48.392;9.950;2023-09-08T05:58:45;18.30;99.90
580;DHT22;276;48.392;9.950;2023-09-08T06:01:11;18.30;99.90
580;DHT22;276;48.392;9.950;2023-09-08T06:03:41;18.40;99.90
580;DHT22;276;48.392;9.950;2023-09-08T06:06:10;18.40;99.90
580;DHT22;276;48.392;9.950;2023-09-08T06:08:38;18.40;99.90
580;DHT22;276;48.392;9.950;2023-09-08T06:11:04;18.50;99.90
580;DHT22;276;48.392;9.950;2023-09-08T06:13:32;18.50;99.90
580;DHT22;276;48.392;9.950;2023-09-08T06:16:00;18.60;99.90
580;DHT22;276;48.392;9.950;2023-09-08T06:18:28;18.60;99.90
580;DHT22;276;48.392;9.950;2023-09-08T06:20:58;18.70;99.90
580;DHT22;276;48.392;9.950;2023-09-08T06:23:24;18.70;99.90
580;DHT22;276;48.392;9.950;2023-09-08T06:25:57;18.80;99.90
580;DHT22;276;48.392;9.950;2023-09-08T06:28:27;18.90;99.90
580;DHT22;276;48.392;9.950;2023-09-08T06:31:09;18.90;99.90
580;DHT22;276;48.392;9.950;2023-09-08T06:33:37;19.10;99.90
580;DHT22;276;48.392;9.950;2023-09-08T06:36:03;19.20;99.90
580;DHT22;276;48.392;9.950;2023-09-08T06:38:29;19.30;99.90
580;DHT22;276;48.392;9.950;2023-09-08T06:40:56;19.40;99.90
580;DHT22;276;48.392;9.950;2023-09-08T06:43:22;19.50;99.90
580;DHT22;276;48.392;9.950;2023-09-08T06:45:50;19.60;99.90
580;DHT22;276;48.392;9.950;2023-09-08T06:48:18;19.70;99.90
580;DHT22;276;48.392;9.950;2023-09-08T06:50:48;19.90;99.90
580;DHT22;276;48.392;9.950;2023-09-08T06:53:14;20.00;99.90
580;DHT22;276;48.392;9.950;2023-09-08T06:55:41;20.10;99.90
580;DHT22;276;48.392;9.950;2023-09-08T06:58:09;20.20;99.90
580;DHT22;276;48.392;9.950;2023-09-08T07:00:35;20.40;99.90
580;DHT22;276;48.392;9.950;2023-09-08T07:03:05;20.40;99.90
580;DHT22;276;48.392;9.950;2023-09-08T07:05:31;20.60;99.90
580;DHT22;276;48.392;9.950;2023-09-08T07:07:59;20.60;99.90
580;DHT22;276;48.392;9.950;2023-09-08T07:10:27;20.80;99.90
580;DHT22;276;48.392;9.950;2023-09-08T07:12:54;20.90;99.90
580;DHT22;276;48.392;9.950;2023-09-08T07:15:20;21.00;99.90
580;DHT22;276;48.392;9.950;2023-09-08T07:17:48;21.00;99.90
580;DHT22;276;48.392;9.950;2023-09-08T07:20:16;21.20;99.90
580;DHT22;276;48.392;9.950;2023-09-08T07:22:43;21.20;99.90
580;DHT22;276;48.392;9.950;2023-09-08T07:25:13;21.30;99.90
580;DHT22;276;48.392;9.950;2023-09-08T07:27:44;21.40;99.90
580;DHT22;276;48.392;9.950;2023-09-08T07:30:10;21.50;99.90
580;DHT22;276;48.392;9.950;2023-09-08T07:32:36;21.60;99.90
580;DHT22;276;48.392;9.950;2023-09-08T07:35:02;21.70;99.90
580;DHT22;276;48.392;9.950;2023-09-08T07:37:27;21.80;99.90
580;DHT22;276;48.392;9.950;2023-09-08T07:39:55;21.90;99.90
580;DHT22;276;48.392;9.950;2023-09-08T07:42:21;22.10;99.90
580;DHT22;276;48.392;9.950;2023-09-08T07:44:47;22.20;99.90
580;DHT22;276;48.392;9.950;2023-09-08T07:47:13;22.40;99.90
580;DHT22;276;48.392;9.950;2023-09-08T07:49:38;22.50;99.90
580;DHT22;276;48.392;9.950;2023-09-08T07:52:09;22.70;99.90
580;DHT22;276;48.392;9.950;2023-09-08T07:54:37;22.80;99.90
580;DHT22;276;48.392;9.950;2023-09-08T07:57:02;22.90;99.90
580;DHT22;276;48.392;9.950;2023-09-08T07:59:28;23.00;99.90
580;DHT22;276;48.392;9.950;2023-09-08T08:01:56;23.10;99.90
580;DHT22;276;48.392;9.950;2023-09-08T08:04:21;23.30;99.90
580;DHT22;276;48.392;9.950;2023-09-08T08:06:47;23.30;99.70
580;DHT22;276;48.392;9.950;2023-09-08T08:09:15;23.40;99.60
580;DHT22;276;48.392;9.950;2023-09-08T08:11:41;23.50;99.60
580;DHT22;276;48.392;9.950;2023-09-08T08:14:09;23.60;99.30
580;DHT22;276;48.392;9.950;2023-09-08T08:16:35;23.80;99.30
580;DHT22;276;48.392;9.950;2023-09-08T08:19:03;24.00;99.10
580;DHT22;276;48.392;9.950;2023-09-08T08:21:28;24.10;98.90
580;DHT22;276;48.392;9.950;2023-09-08T08:23:55;24.30;98.80
580;DHT22;276;48.392;9.950;2023-09-08T08:26:23;24.30;98.60
580;DHT22;276;48.392;9.950;2023-09-08T08:28:57;24.40;98.50
580;DHT22;276;48.392;9.950;2023-09-08T08:31:23;24.50;98.40
580;DHT22;276;48.392;9.950;2023-09-08T08:33:49;24.50;98.10
580;DHT22;276;48.392;9.950;2023-09-08T08:36:15;24.60;98.30
580;DHT22;276;48.392;9.950;2023-09-08T08:38:45;24.70;98.40
580;DHT22;276;48.392;9.950;2023-09-08T08:41:13;24.90;98.30
580;DHT22;276;48.392;9.950;2023-09-08T08:43:39;25.00;98.10
580;DHT22;276;48.392;9.950;2023-09-08T08:46:07;25.10;97.80
580;DHT22;276;48.392;9.950;2023-09-08T08:48:39;25.20;97.60
580;DHT22;276;48.392;9.950;2023-09-08T08:51:05;25.30;97.10
580;DHT22;276;48.392;9.950;2023-09-08T08:53:33;25.40;96.80
580;DHT22;276;48.392;9.950;2023-09-08T08:56:00;25.40;96.70
580;DHT22;276;48.392;9.950;2023-09-08T08:58:27;25.50;96.60
580;DHT22;276;48.392;9.950;2023-09-08T09:00:57;25.70;96.70
580;DHT22;276;48.392;9.950;2023-09-08T09:03:26;25.80;96.70
580;DHT22;276;48.392;9.950;2023-09-08T09:05:55;25.90;96.50
580;DHT22;276;48.392;9.950;2023-09-08T09:08:22;26.00;96.50
580;DHT22;276;48.392;9.950;2023-09-08T09:10:50;26.20;96.30
580;DHT22;276;48.392;9.950;2023-09-08T09:13:16;26.30;96.00
580;DHT22;276;48.392;9.950;2023-09-08T09:15:42;26.40;95.60
580;DHT22;276;48.392;9.950;2023-09-08T09:18:09;26.50;95.30
580;DHT22;276;48.392;9.950;2023-09-08T09:20:35;26.60;95.20
580;DHT22;276;48.392;9.950;2023-09-08T09:23:05;26.80;94.90
580;DHT22;276;48.392;9.950;2023-09-08T09:25:34;26.80;94.60
580;DHT22;276;48.392;9.950;2023-09-08T09:28:04;26.80;94.80
580;DHT22;276;48.392;9.950;2023-09-08T09:30:48;26.90;94.90
580;DHT22;276;48.392;9.950;2023-09-08T09:33:17;27.00;94.60
580;DHT22;276;48.392;9.950;2023-09-08T09:38:16;27.30;94.20
580;DHT22;276;48.392;9.950;2023-09-08T09:40:47;27.40;94.10
580;DHT22;276;48.392;9.950;2023-09-08T09:43:17;27.40;93.80
580;DHT22;276;48.392;9.950;2023-09-08T09:45:45;27.50;93.80
580;DHT22;276;48.392;9.950;2023-09-08T09:48:14;27.60;93.60
580;DHT22;276;48.392;9.950;2023-09-08T09:50:42;27.70;93.50
580;DHT22;276;48.392;9.950;2023-09-08T09:53:20;27.70;92.90
580;DHT22;276;48.392;9.950;2023-09-08T09:55:48;27.80;92.70
580;DHT22;276;48.392;9.950;2023-09-08T09:58:13;27.80;92.50
580;DHT22;276;48.392;9.950;2023-09-08T10:00:42;28.00;92.60
580;DHT22;276;48.392;9.950;2023-09-08T10:03:13;28.00;92.40
580;DHT22;276;48.392;9.950;2023-09-08T10:05:41;28.10;92.00
580;DHT22;276;48.392;9.950;2023-09-08T10:08:12;28.10;92.00
580;DHT22;276;48.392;9.950;2023-09-08T10:10:38;28.10;92.10
580;DHT22;276;48.392;9.950;2023-09-08T10:13:07;28.10;92.20
580;DHT22;276;48.392;9.950;2023-09-08T10:15:37;28.20;92.10
580;DHT22;276;48.392;9.950;2023-09-08T10:18:07;28.20;91.90
580;DHT22;276;48.392;9.950;2023-09-08T10:20:34;28.10;91.50
580;DHT22;276;48.392;9.950;2023-09-08T10:23:12;28.10;91.90
580;DHT22;276;48.392;9.950;2023-09-08T10:25:43;28.20;92.10
580;DHT22;276;48.392;9.950;2023-09-08T10:28:12;28.40;92.10
580;DHT22;276;48.392;9.950;2023-09-08T10:30:38;28.40;92.30
580;DHT22;276;48.392;9.950;2023-09-08T10:33:09;28.50;92.40
580;DHT22;276;48.392;9.950;2023-09-08T10:35:38;28.60;92.10
580;DHT22;276;48.392;9.950;2023-09-08T10:38:26;28.60;91.60
580;DHT22;276;48.392;9.950;2023-09-08T10:40:53;28.60;91.40
580;DHT22;276;48.392;9.950;2023-09-08T10:43:21;28.50;91.50
580;DHT22;276;48.392;9.950;2023-09-08T10:45:51;28.50;91.50
580;DHT22;276;48.392;9.950;2023-09-08T10:48:22;28.50;91.70
580;DHT22;276;48.392;9.950;2023-09-08T10:50:48;28.50;91.90
580;DHT22;276;48.392;9.950;2023-09-08T10:53:19;28.70;92.00
580;DHT22;276;48.392;9.950;2023-09-08T10:55:49;28.80;91.80
580;DHT22;276;48.392;9.950;2023-09-08T10:58:18;28.80;91.50
580;DHT22;276;48.392;9.950;2023-09-08T11:00:50;28.90;91.70
580;DHT22;276;48.392;9.950;2023-09-08T11:03:26;28.90;91.80
580;DHT22;276;48.392;9.950;2023-09-08T11:05:53;28.90;91.80
580;DHT22;276;48.392;9.950;2023-09-08T11:08:18;28.90;91.70
580;DHT22;276;48.392;9.950;2023-09-08T11:10:45;28.90;91.80
580;DHT22;276;48.392;9.950;2023-09-08T11:13:12;29.00;92.00
580;DHT22;276;48.392;9.950;2023-09-08T11:15:43;29.10;92.20
580;DHT22;276;48.392;9.950;2023-09-08T11:18:09;29.10;91.90
580;DHT22;276;48.392;9.950;2023-09-08T11:20:34;29.00;91.40
580;DHT22;276;48.392;9.950;2023-09-08T11:23:00;28.90;91.50
580;DHT22;276;48.392;9.950;2023-09-08T11:25:26;28.90;91.80
580;DHT22;276;48.392;9.950;2023-09-08T11:27:54;29.00;91.90
580;DHT22;276;48.392;9.950;2023-09-08T11:30:20;29.10;92.10
580;DHT22;276;48.392;9.950;2023-09-08T11:32:46;29.20;91.90
580;DHT22;276;48.392;9.950;2023-09-08T11:35:12;29.30;91.60
580;DHT22;276;48.392;9.950;2023-09-08T11:37:40;29.30;91.70
580;DHT22;276;48.392;9.950;2023-09-08T11:40:07;29.40;91.60
580;DHT22;276;48.392;9.950;2023-09-08T11:42:40;29.20;91.60
580;DHT22;276;48.392;9.950;2023-09-08T11:45:12;29.30;91.80
580;DHT22;276;48.392;9.950;2023-09-08T11:47:43;29.30;91.80
580;DHT22;276;48.392;9.950;2023-09-08T11:50:12;29.40;91.70
580;DHT22;276;48.392;9.950;2023-09-08T11:52:48;29.30;91.50
580;DHT22;276;48.392;9.950;2023-09-08T11:55:15;29.30;91.50
580;DHT22;276;48.392;9.950;2023-09-08T11:57:42;29.20;91.60
580;DHT22;276;48.392;9.950;2023-09-08T12:00:10;29.10;91.80
580;DHT22;276;48.392;9.950;2023-09-08T12:02:42;29.10;91.70
580;DHT22;276;48.392;9.950;2023-09-08T12:05:34;29.10;91.90
580;DHT22;276;48.392;9.950;2023-09-08T12:08:05;29.00;91.90
580;DHT22;276;48.392;9.950;2023-09-08T12:10:38;28.90;91.70
580;DHT22;276;48.392;9.950;2023-09-08T12:13:03;28.90;91.50
580;DHT22;276;48.392;9.950;2023-09-08T12:15:38;28.90;91.40
580;DHT22;276;48.392;9.950;2023-09-08T12:18:10;29.00;91.40
580;DHT22;276;48.392;9.950;2023-09-08T12:20:41;29.10;91.50
580;DHT22;276;48.392;9.950;2023-09-08T12:23:16;29.10;91.60
580;DHT22;276;48.392;9.950;2023-09-08T12:25:47;29.10;91.50
580;DHT22;276;48.392;9.950;2023-09-08T12:28:13;29.20;91.80
580;DHT22;276;48.392;9.950;2023-09-08T12:30:41;29.20;91.80
580;DHT22;276;48.392;9.950;2023-09-08T12:33:10;29.20;91.70
580;DHT22;276;48.392;9.950;2023-09-08T12:35:39;29.30;91.60
580;DHT22;276;48.392;9.950;2023-09-08T12:38:05;29.40;91.40
580;DHT22;276;48.392;9.950;2023-09-08T12:40:34;29.40;91.20
580;DHT22;276;48.392;9.950;2023-09-08T12:43:00;29.50;91.10
580;DHT22;276;48.392;9.950;2023-09-08T12:45:27;29.50;90.90
580;DHT22;276;48.392;9.950;2023-09-08T12:47:53;29.50;90.70
580;DHT22;276;48.392;9.950;2023-09-08T12:50:23;29.60;90.50
580;DHT22;276;48.392;9.950;2023-09-08T12:52:48;29.60;90.30
580;DHT22;276;48.392;9.950;2023-09-08T12:55:16;29.60;90.20
580;DHT22;276;48.392;9.950;2023-09-08T12:57:42;29.60;90.10
580;DHT22;276;48.392;9.950;2023-09-08T13:00:08;29.60;90.10
580;DHT22;276;48.392;9.950;2023-09-08T13:02:36;29.50;90.30
580;DHT22;276;48.392;9.950;2023-09-08T13:05:05;29.40;90.30
580;DHT22;276;48.392;9.950;2023-09-08T13:07:33;29.30;90.00
580;DHT22;276;48.392;9.950;2023-09-08T13:09:59;29.20;90.20
580;DHT22;276;48.392;9.950;2023-09-08T13:12:24;29.20;90.50
580;DHT22;276;48.392;9.950;2023-09-08T13:14:54;29.10;90.70
580;DHT22;276;48.392;9.950;2023-09-08T13:17:20;29.00;90.80
580;DHT22;276;48.392;9.950;2023-09-08T13:19:47;28.90;90.90
580;DHT22;276;48.392;9.950;2023-09-08T13:22:15;28.90;91.00
580;DHT22;276;48.392;9.950;2023-09-08T13:24:43;28.80;91.10
580;DHT22;276;48.392;9.950;2023-09-08T13:27:08;28.80;91.50
580;DHT22;276;48.392;9.950;2023-09-08T13:29:34;28.70;91.60
580;DHT22;276;48.392;9.950;2023-09-08T13:31:59;28.60;91.40
580;DHT22;276;48.392;9.950;2023-09-08T13:34:27;28.60;91.00
580;DHT22;276;48.392;9.950;2023-09-08T13:36:53;28.50;91.10
580;DHT22;276;48.392;9.950;2023-09-08T13:39:21;28.50;91.20
580;DHT22;276;48.392;9.950;2023-09-08T13:41:54;28.50;91.40
580;DHT22;276;48.392;9.950;2023-09-08T13:44:23;28.50;91.30
580;DHT22;276;48.392;9.950;2023-09-08T13:46:55;28.40;90.90
580;DHT22;276;48.392;9.950;2023-09-08T13:49:23;28.30;90.60
580;DHT22;276;48.392;9.950;2023-09-08T13:51:53;28.20;91.00
580;DHT22;276;48.392;9.950;2023-09-08T13:54:22;28.20;91.70
580;DHT22;276;48.392;9.950;2023-09-08T13:57:01;28.20;91.80
580;DHT22;276;48.392;9.950;2023-09-08T13:59:32;28.20;91.90
580;DHT22;276;48.392;9.950;2023-09-08T14:02:03;28.20;91.60
580;DHT22;276;48.392;9.950;2023-09-08T14:04:31;28.20;91.50
580;DHT22;276;48.392;9.950;2023-09-08T14:06:56;28.20;91.50
580;DHT22;276;48.392;9.950;2023-09-08T14:09:24;28.10;91.60
580;DHT22;276;48.392;9.950;2023-09-08T14:11:55;28.10;91.60
580;DHT22;276;48.392;9.950;2023-09-08T14:14:21;28.10;91.70
580;DHT22;276;48.392;9.950;2023-09-08T14:16:47;28.10;91.70
580;DHT22;276;48.392;9.950;2023-09-08T14:19:12;28.10;91.70
580;DHT22;276;48.392;9.950;2023-09-08T14:21:40;28.10;91.80
580;DHT22;276;48.392;9.950;2023-09-08T14:24:06;28.10;91.70
580;DHT22;276;48.392;9.950;2023-09-08T14:26:32;28.10;91.60
580;DHT22;276;48.392;9.950;2023-09-08T14:28:57;28.10;91.40
580;DHT22;276;48.392;9.950;2023-09-08T14:31:23;28.10;91.50
580;DHT22;276;48.392;9.950;2023-09-08T14:33:51;28.10;91.50
580;DHT22;276;48.392;9.950;2023-09-08T14:36:22;28.00;91.40
580;DHT22;276;48.392;9.950;2023-09-08T14:38:48;28.00;91.30
580;DHT22;276;48.392;9.950;2023-09-08T14:41:13;28.00;91.40
580;DHT22;276;48.392;9.950;2023-09-08T14:43:44;28.00;91.60
580;DHT22;276;48.392;9.950;2023-09-08T14:46:14;27.90;91.70
580;DHT22;276;48.392;9.950;2023-09-08T14:48:40;27.90;91.60
580;DHT22;276;48.392;9.950;2023-09-08T14:51:08;27.90;91.70
580;DHT22;276;48.392;9.950;2023-09-08T14:53:36;27.80;91.70
580;DHT22;276;48.392;9.950;2023-09-08T14:56:02;27.80;91.90
580;DHT22;276;48.392;9.950;2023-09-08T14:58:29;27.80;91.90
580;DHT22;276;48.392;9.950;2023-09-08T15:01:00;27.80;91.90
580;DHT22;276;48.392;9.950;2023-09-08T15:03:33;27.80;91.90
580;DHT22;276;48.392;9.950;2023-09-08T15:05:59;27.80;92.00
580;DHT22;276;48.392;9.950;2023-09-08T15:08:25;27.80;92.00
580;DHT22;276;48.392;9.950;2023-09-08T15:10:53;27.70;91.90
580;DHT22;276;48.392;9.950;2023-09-08T15:13:23;27.70;91.90
580;DHT22;276;48.392;9.950;2023-09-08T15:15:49;27.70;92.00
580;DHT22;276;48.392;9.950;2023-09-08T15:18:19;27.70;92.10
580;DHT22;276;48.392;9.950;2023-09-08T15:20:54;27.60;92.00
580;DHT22;276;48.392;9.950;2023-09-08T15:23:22;27.60;92.20
580;DHT22;276;48.392;9.950;2023-09-08T15:25:56;27.60;92.40
580;DHT22;276;48.392;9.950;2023-09-08T15:28:22;27.50;92.50
580;DHT22;276;48.392;9.950;2023-09-08T15:30:52;27.50;92.30
580;DHT22;276;48.392;9.950;2023-09-08T15:33:18;27.40;92.30
580;DHT22;276;48.392;9.950;2023-09-08T15:35:48;27.40;92.40
580;DHT22;276;48.392;9.950;2023-09-08T15:38:16;27.40;92.50
580;DHT22;276;48.392;9.950;2023-09-08T15:41:15;27.40;92.50
580;DHT22;276;48.392;9.950;2023-09-08T15:43:50;27.40;92.50
580;DHT22;276;48.392;9.950;2023-09-08T15:46:17;27.30;92.50
580;DHT22;276;48.392;9.950;2023-09-08T15:48:42;27.30;92.60
580;DHT22;276;48.392;9.950;2023-09-08T15:51:11;27.30;92.50
580;DHT22;276;48.392;9.950;2023-09-08T15:53:38;27.30;92.60
580;DHT22;276;48.392;9.950;2023-09-08T15:56:07;27.30;92.60
580;DHT22;276;48.392;9.950;2023-09-08T15:58:34;27.30;92.70
580;DHT22;276;48.392;9.950;2023-09-08T16:01:01;27.30;92.80
580;DHT22;276;48.392;9.950;2023-09-08T16:03:30;27.30;92.90
580;DHT22;276;48.392;9.950;2023-09-08T16:05:56;27.30;92.90
580;DHT22;276;48.392;9.950;2023-09-08T16:08:26;27.20;92.90
580;DHT22;276;48.392;9.950;2023-09-08T16:10:51;27.20;92.90
580;DHT22;276;48.392;9.950;2023-09-08T16:13:20;27.10;92.70
580;DHT22;276;48.392;9.950;2023-09-08T16:15:45;27.10;92.70
580;DHT22;276;48.392;9.950;2023-09-08T16:18:13;27.10;92.80
580;DHT22;276;48.392;9.950;2023-09-08T16:20:39;27.10;92.90
580;DHT22;276;48.392;9.950;2023-09-08T16:23:05;27.00;93.00
580;DHT22;276;48.392;9.950;2023-09-08T16:25:35;27.00;93.10
580;DHT22;276;48.392;9.950;2023-09-08T16:28:05;26.90;93.20
580;DHT22;276;48.392;9.950;2023-09-08T16:30:31;26.90;93.30
580;DHT22;276;48.392;9.950;2023-09-08T16:32:57;26.90;93.50
580;DHT22;276;48.392;9.950;2023-09-08T16:35:27;26.90;93.50
580;DHT22;276;48.392;9.950;2023-09-08T16:37:53;26.90;93.60
580;DHT22;276;48.392;9.950;2023-09-08T16:40:21;26.80;93.50
580;DHT22;276;48.392;9.950;2023-09-08T16:42:52;26.80;93.60
580;DHT22;276;48.392;9.950;2023-09-08T16:45:17;26.70;93.70